createdAt,value
2023-05-06T00:01:15.775Z,0
2023-05-06T00:06:25.462Z,0
2023-05-06T00:11:35.858Z,0
2023-05-06T00:16:45.922Z,0
2023-05-06T00:21:54.145Z,0
2023-05-06T00:27:03.879Z,0
2023-05-06T00:32:13.959Z,0
2023-05-06T00:37:23.379Z,0
2023-05-06T00:42:33.821Z,0
2023-05-06T00:47:42.428Z,0
2023-05-06T00:52:51.400Z,0
2023-05-06T00:58:00.477Z,0
2023-05-06T01:03:10.095Z,0
2023-05-06T01:08:19.394Z,0
2023-05-06T01:13:29.814Z,0
2023-05-06T01:18:39.559Z,0
2023-05-06T01:23:49.306Z,0
2023-05-06T01:28:57.816Z,0
2023-05-06T01:34:07.555Z,0
2023-05-06T01:39:16.040Z,0
2023-05-06T01:44:25.806Z,0
2023-05-06T01:49:36.841Z,0
2023-05-06T01:54:45.315Z,0
2023-05-06T01:59:55.074Z,0
2023-05-06T02:05:03.564Z,0
2023-05-06T02:10:13.352Z,0
2023-05-06T02:15:23.091Z,0
2023-05-06T02:20:31.587Z,0
2023-05-06T02:25:41.317Z,0
2023-05-06T02:30:51.054Z,0
2023-05-06T02:36:01.461Z,0
2023-05-06T02:41:11.228Z,0
2023-05-06T02:46:21.354Z,0
2023-05-06T02:51:30.745Z,0
2023-05-06T02:56:39.216Z,0
2023-05-06T03:01:49.031Z,0
2023-05-06T03:48:14.565Z,28
2023-05-06T03:53:24.013Z,42
2023-05-06T03:58:34.437Z,58
2023-05-06T04:03:43.263Z,76
2023-05-06T04:08:52.689Z,101
2023-05-06T04:14:01.810Z,153
2023-05-06T04:19:10.904Z,277
2023-05-06T04:24:19.378Z,346
2023-05-06T04:29:27.857Z,401
2023-05-06T04:34:36.991Z,463
2023-05-06T04:39:46.114Z,514
2023-05-06T04:44:54.618Z,594
2023-05-06T04:50:03.119Z,678
2023-05-06T04:55:13.520Z,729
2023-05-06T05:00:22.597Z,782
2023-05-06T05:05:32.387Z,976
2023-05-06T05:10:41.474Z,1182
2023-05-06T05:15:50.583Z,975
2023-05-06T05:20:59.712Z,1056
2023-05-06T05:26:08.830Z,3427
2023-05-06T05:31:18.792Z,2233
2023-05-06T05:36:27.093Z,1142
2023-05-06T05:41:36.227Z,1242
2023-05-06T05:46:46.152Z,1825
2023-05-06T05:51:56.389Z,5442
2023-05-06T05:57:05.490Z,1584
2023-05-06T06:02:13.919Z,1156
2023-05-06T06:07:23.056Z,1392
2023-05-06T06:12:31.552Z,1416
2023-05-06T06:17:41.729Z,1462
2023-05-06T06:22:51.077Z,1563
2023-05-06T06:28:00.819Z,1514
2023-05-06T06:33:11.234Z,2504
2023-05-06T06:38:20.986Z,1966
2023-05-06T06:43:30.763Z,6180
2023-05-06T07:29:54.849Z,1641
2023-05-06T07:35:03.976Z,1663
2023-05-06T07:40:12.985Z,1661
2023-05-06T07:45:22.168Z,1673
2023-05-06T07:50:30.580Z,1670
2023-05-06T07:55:40.333Z,1732
2023-05-06T08:00:49.480Z,1804
2023-05-06T08:05:59.229Z,1838
2023-05-06T08:11:07.080Z,1861
2023-05-06T08:16:17.627Z,1922
2023-05-06T08:21:27.249Z,1915
2023-05-06T08:26:37.004Z,1932
2023-05-06T08:31:45.609Z,1879
2023-05-06T08:36:54.572Z,1921
2023-05-06T08:42:03.136Z,1826
2023-05-06T08:47:12.848Z,1835
2023-05-06T08:52:22.767Z,1924
2023-05-06T08:57:31.709Z,2034
2023-05-06T09:02:43.792Z,2355
2023-05-06T09:07:49.962Z,2417
2023-05-06T09:12:59.854Z,2459
2023-05-06T09:18:08.453Z,1458
2023-05-06T09:23:18.014Z,2863
2023-05-06T09:28:27.088Z,2732
2023-05-06T09:33:36.214Z,1475
2023-05-06T09:38:44.712Z,1586
2023-05-06T09:43:55.716Z,2499
2023-05-06T09:49:04.198Z,2607
2023-05-06T09:54:12.667Z,2457
2023-05-06T09:59:21.797Z,2458
2023-05-06T10:04:30.995Z,1036
2023-05-06T10:09:39.391Z,2186
2023-05-06T10:14:48.543Z,2254
2023-05-06T10:19:57.681Z,2065
2023-05-06T10:25:06.782Z,2293
2023-05-06T11:16:40.723Z,2042
2023-05-06T11:21:50.988Z,2067
2023-05-06T11:26:59.464Z,2914
2023-05-06T11:32:08.520Z,1624
2023-05-06T11:37:17.092Z,2042
2023-05-06T11:42:26.123Z,1811
2023-05-06T11:47:37.979Z,3142
2023-05-06T11:52:46.896Z,2418
2023-05-06T11:57:56.686Z,2536
2023-05-06T12:03:06.051Z,3438
2023-05-06T12:08:28.779Z,2720
2023-05-06T12:13:23.687Z,2016
2023-05-06T12:18:32.537Z,2933
2023-05-06T12:25:01.675Z,2910
2023-05-06T12:30:13.733Z,2914
2023-05-06T12:35:23.699Z,2558
2023-05-06T12:40:34.745Z,2294
2023-05-06T12:45:46.005Z,2281
2023-05-06T12:50:58.104Z,2466
2023-05-06T12:56:09.819Z,2295
2023-05-06T13:01:20.335Z,2277
2023-05-06T13:06:29.943Z,2576
2023-05-06T13:11:40.350Z,2636
2023-05-06T13:16:50.219Z,2464
2023-05-06T13:22:02.458Z,2450
2023-05-06T13:27:10.937Z,2412
2023-05-06T13:32:22.054Z,2343
2023-05-06T13:37:31.692Z,2447
2023-05-06T13:42:40.845Z,2401
2023-05-06T13:47:50.891Z,2403
2023-05-06T13:52:59.734Z,2270
2023-05-06T13:58:08.224Z,2239
2023-05-06T14:03:17.983Z,2374
2023-05-06T14:08:27.699Z,2415
2023-05-06T14:13:39.397Z,2478
2023-05-06T14:18:50.438Z,2682
2023-05-06T14:24:00.130Z,2397
2023-05-06T14:29:10.004Z,2329
2023-05-06T14:34:18.416Z,2261
2023-05-06T14:39:28.179Z,2135
2023-05-06T14:44:38.507Z,2105
2023-05-06T14:49:46.426Z,1963
2023-05-06T14:54:56.846Z,1857
2023-05-06T15:00:05.969Z,1702
2023-05-06T15:05:15.850Z,1498
2023-05-06T15:10:24.820Z,1270
2023-05-06T15:15:33.985Z,1132
2023-05-06T15:20:44.343Z,906
2023-05-06T15:25:54.784Z,796
2023-05-06T16:12:20.183Z,148
2023-05-06T16:17:29.393Z,79
2023-05-06T16:22:40.199Z,79
2023-05-06T16:27:47.389Z,62
2023-05-06T16:32:56.654Z,71
2023-05-06T16:38:06.285Z,92
2023-05-06T16:43:14.745Z,115
2023-05-06T16:48:24.214Z,135
2023-05-06T16:53:33.028Z,148
2023-05-06T16:58:43.007Z,152
2023-05-06T17:03:51.280Z,152
2023-05-06T17:09:00.501Z,134
2023-05-06T17:14:09.459Z,125
2023-05-06T17:19:22.426Z,111
2023-05-06T17:24:30.957Z,102
2023-05-06T17:29:38.792Z,104
2023-05-06T17:34:48.516Z,100
2023-05-06T17:39:58.291Z,121
2023-05-06T17:45:08.855Z,128
2023-05-06T17:50:17.800Z,145
2023-05-06T17:55:27.552Z,163
2023-05-06T18:00:36.683Z,169
2023-05-06T18:05:45.802Z,160
2023-05-06T18:10:53.623Z,142
2023-05-06T18:16:05.405Z,109
2023-05-06T18:21:14.426Z,81
2023-05-06T18:26:46.578Z,71
2023-05-06T18:31:34.842Z,56
2023-05-06T18:36:43.102Z,41
2023-05-06T18:41:52.828Z,28
2023-05-06T18:47:01.314Z,21
2023-05-06T18:52:10.423Z,17
2023-05-06T18:57:19.034Z,10
2023-05-06T19:02:28.360Z,7
2023-05-06T19:07:37.164Z,5
2023-05-06T19:12:45.133Z,3
2023-05-06T19:17:54.291Z,2
2023-05-06T20:04:18.193Z,0
2023-05-06T20:09:27.334Z,0
2023-05-06T20:14:36.995Z,0
2023-05-06T20:19:46.794Z,0
2023-05-06T20:24:55.267Z,0
2023-05-06T20:30:05.250Z,0
2023-05-06T20:35:16.030Z,0
2023-05-06T20:40:25.810Z,0
2023-05-06T20:45:35.631Z,0
2023-05-06T20:50:44.080Z,0
2023-05-06T20:55:54.020Z,0
2023-05-06T21:01:02.422Z,0
2023-05-06T21:06:11.382Z,0
2023-05-06T21:11:21.137Z,0
2023-05-06T21:16:30.278Z,0
2023-05-06T21:21:38.766Z,0
2023-05-06T21:26:47.883Z,0
2023-05-06T21:31:57.599Z,0
2023-05-06T21:37:06.122Z,0
2023-05-06T21:42:14.596Z,0
2023-05-06T21:47:25.119Z,0
2023-05-06T21:52:34.727Z,0
2023-05-06T21:57:46.468Z,0
2023-05-06T22:02:53.897Z,0
2023-05-06T22:08:02.735Z,0
2023-05-06T22:13:12.767Z,0
2023-05-06T22:18:20.377Z,0
2023-05-06T22:23:29.462Z,0
2023-05-06T22:28:38.629Z,0
2023-05-06T22:33:47.696Z,0
2023-05-06T22:38:57.000Z,0
2023-05-06T22:44:06.625Z,0
2023-05-06T22:49:15.784Z,0
2023-05-06T22:54:24.825Z,0
2023-05-06T22:59:33.944Z,0
2023-05-06T23:04:43.709Z,0
2023-05-06T23:51:05.263Z,0
2023-05-06T23:56:14.924Z,0
